sensor_id;sensor_type;location;lat;lon;timestamp;temperature;humidity
19060;DHT22;9663;48.996;8.334;2024-02-16T00:00:08;16.20;54.90
19060;DHT22;9663;48.996;8.334;2024-02-16T00:02:37;16.20;54.90
19060;DHT22;9663;48.996;8.334;2024-02-16T00:05:03;16.20;55.00
19060;DHT22;9663;48.996;8.334;2024-02-16T00:07:31;16.10;55.00
19060;DHT22;9663;48.996;8.334;2024-02-16T00:09:56;16.10;55.00
19060;DHT22;9663;48.996;8.334;2024-02-16T00:12:23;16.10;55.10
19060;DHT22;9663;48.996;8.334;2024-02-16T00:14:48;16.10;55.10
19060;DHT22;9663;48.996;8.334;2024-02-16T00:17:14;16.10;55.10
19060;DHT22;9663;48.996;8.334;2024-02-16T00:19:40;16.10;55.20
19060;DHT22;9663;48.996;8.334;2024-02-16T00:22:06;16.00;55.20
19060;DHT22;9663;48.996;8.334;2024-02-16T00:24:34;16.00;55.20
19060;DHT22;9663;48.996;8.334;2024-02-16T00:27:02;16.00;55.20
19060;DHT22;9663;48.996;8.334;2024-02-16T00:29:31;15.90;55.30
19060;DHT22;9663;48.996;8.334;2024-02-16T00:31:57;15.90;55.30
19060;DHT22;9663;48.996;8.334;2024-02-16T00:34:25;15.90;56.00
19060;DHT22;9663;48.996;8.334;2024-02-16T00:36:51;15.90;55.40
19060;DHT22;9663;48.996;8.334;2024-02-16T00:39:17;15.90;55.40
19060;DHT22;9663;48.996;8.334;2024-02-16T00:41:43;15.80;55.40
19060;DHT22;9663;48.996;8.334;2024-02-16T00:44:09;15.80;55.60
19060;DHT22;9663;48.996;8.334;2024-02-16T00:46:38;15.80;55.60
19060;DHT22;9663;48.996;8.334;2024-02-16T00:49:04;15.80;55.70
19060;DHT22;9663;48.996;8.334;2024-02-16T00:51:29;15.80;55.70
19060;DHT22;9663;48.996;8.334;2024-02-16T00:53:55;15.80;55.70
19060;DHT22;9663;48.996;8.334;2024-02-16T00:56:21;15.80;55.70
19060;DHT22;9663;48.996;8.334;2024-02-16T00:58:47;15.80;55.60
19060;DHT22;9663;48.996;8.334;2024-02-16T01:01:12;15.80;55.60
19060;DHT22;9663;48.996;8.334;2024-02-16T01:03:39;15.80;55.60
19060;DHT22;9663;48.996;8.334;2024-02-16T01:06:05;15.80;55.60
19060;DHT22;9663;48.996;8.334;2024-02-16T01:08:32;15.80;55.60
19060;DHT22;9663;48.996;8.334;2024-02-16T01:10:58;15.90;55.60
19060;DHT22;9663;48.996;8.334;2024-02-16T01:13:24;15.90;55.60
19060;DHT22;9663;48.996;8.334;2024-02-16T01:15:49;15.90;55.60
19060;DHT22;9663;48.996;8.334;2024-02-16T01:18:15;15.90;55.60
19060;DHT22;9663;48.996;8.334;2024-02-16T01:20:41;15.90;55.60
19060;DHT22;9663;48.996;8.334;2024-02-16T01:23:06;15.90;55.70
19060;DHT22;9663;48.996;8.334;2024-02-16T01:25:32;15.90;55.70
19060;DHT22;9663;48.996;8.334;2024-02-16T01:27:58;15.90;55.70
19060;DHT22;9663;48.996;8.334;2024-02-16T01:30:24;15.90;55.70
19060;DHT22;9663;48.996;8.334;2024-02-16T01:32:50;15.90;55.60
19060;DHT22;9663;48.996;8.334;2024-02-16T01:35:16;15.90;55.60
19060;DHT22;9663;48.996;8.334;2024-02-16T01:37:42;15.90;55.60
19060;DHT22;9663;48.996;8.334;2024-02-16T01:40:09;15.90;55.60
19060;DHT22;9663;48.996;8.334;2024-02-16T01:42:40;15.80;55.60
19060;DHT22;9663;48.996;8.334;2024-02-16T01:45:07;15.90;55.60
19060;DHT22;9663;48.996;8.334;2024-02-16T01:47:43;15.90;55.60
19060;DHT22;9663;48.996;8.334;2024-02-16T01:50:12;15.90;55.60
19060;DHT22;9663;48.996;8.334;2024-02-16T01:52:38;15.80;55.50
19060;DHT22;9663;48.996;8.334;2024-02-16T01:55:04;15.80;55.60
19060;DHT22;9663;48.996;8.334;2024-02-16T01:57:40;15.80;55.50
19060;DHT22;9663;48.996;8.334;2024-02-16T02:00:08;15.70;55.60
19060;DHT22;9663;48.996;8.334;2024-02-16T02:02:35;15.70;55.50
19060;DHT22;9663;48.996;8.334;2024-02-16T02:05:02;15.60;55.50
19060;DHT22;9663;48.996;8.334;2024-02-16T02:07:29;15.60;55.60
19060;DHT22;9663;48.996;8.334;2024-02-16T02:09:56;15.50;55.60
19060;DHT22;9663;48.996;8.334;2024-02-16T02:12:22;15.50;55.70
19060;DHT22;9663;48.996;8.334;2024-02-16T02:14:49;15.40;55.70
19060;DHT22;9663;48.996;8.334;2024-02-16T02:17:15;15.40;55.70
19060;DHT22;9663;48.996;8.334;2024-02-16T02:19:42;15.40;55.70
19060;DHT22;9663;48.996;8.334;2024-02-16T02:22:17;15.30;55.80
19060;DHT22;9663;48.996;8.334;2024-02-16T02:24:44;15.30;56.10
19060;DHT22;9663;48.996;8.334;2024-02-16T02:27:11;15.20;56.00
19060;DHT22;9663;48.996;8.334;2024-02-16T02:29:38;15.20;56.00
19060;DHT22;9663;48.996;8.334;2024-02-16T02:32:05;15.20;56.10
19060;DHT22;9663;48.996;8.334;2024-02-16T02:34:31;15.10;56.10
19060;DHT22;9663;48.996;8.334;2024-02-16T02:36:57;15.10;56.80
19060;DHT22;9663;48.996;8.334;2024-02-16T02:39:23;15.10;56.20
19060;DHT22;9663;48.996;8.334;2024-02-16T02:41:48;15.10;56.30
19060;DHT22;9663;48.996;8.334;2024-02-16T02:44:14;15.10;56.30
19060;DHT22;9663;48.996;8.334;2024-02-16T02:46:40;15.10;56.40
19060;DHT22;9663;48.996;8.334;2024-02-16T02:49:06;15.10;56.40
19060;DHT22;9663;48.996;8.334;2024-02-16T02:51:32;15.10;56.40
19060;DHT22;9663;48.996;8.334;2024-02-16T02:53:57;15.10;56.40
19060;DHT22;9663;48.996;8.334;2024-02-16T02:56:23;15.10;56.40
19060;DHT22;9663;48.996;8.334;2024-02-16T02:58:49;15.10;56.40
19060;DHT22;9663;48.996;8.334;2024-02-16T03:01:14;15.10;56.50
19060;DHT22;9663;48.996;8.334;2024-02-16T03:03:41;15.10;56.50
19060;DHT22;9663;48.996;8.334;2024-02-16T03:06:08;15.10;56.70
19060;DHT22;9663;48.996;8.334;2024-02-16T03:08:35;15.10;56.50
19060;DHT22;9663;48.996;8.334;2024-02-16T03:11:00;15.10;56.50
19060;DHT22;9663;48.996;8.334;2024-02-16T03:13:27;15.10;56.50
19060;DHT22;9663;48.996;8.334;2024-02-16T03:15:52;15.10;56.60
19060;DHT22;9663;48.996;8.334;2024-02-16T03:18:22;15.10;56.60
19060;DHT22;9663;48.996;8.334;2024-02-16T03:20:47;15.20;56.70
19060;DHT22;9663;48.996;8.334;2024-02-16T03:23:15;15.10;56.60
19060;DHT22;9663;48.996;8.334;2024-02-16T03:25:41;15.10;56.60
19060;DHT22;9663;48.996;8.334;2024-02-16T03:28:13;15.10;56.60
19060;DHT22;9663;48.996;8.334;2024-02-16T03:30:39;15.10;56.70
19060;DHT22;9663;48.996;8.334;2024-02-16T03:33:05;15.10;56.60
19060;DHT22;9663;48.996;8.334;2024-02-16T03:35:31;15.10;56.60
19060;DHT22;9663;48.996;8.334;2024-02-16T03:37:57;15.10;57.30
19060;DHT22;9663;48.996;8.334;2024-02-16T03:40:23;15.10;56.70
19060;DHT22;9663;48.996;8.334;2024-02-16T03:42:50;15.10;56.70
19060;DHT22;9663;48.996;8.334;2024-02-16T03:45:16;15.00;56.70
19060;DHT22;9663;48.996;8.334;2024-02-16T03:47:42;15.00;56.70
19060;DHT22;9663;48.996;8.334;2024-02-16T03:50:09;15.00;56.70
19060;DHT22;9663;48.996;8.334;2024-02-16T03:52:36;15.00;56.70
19060;DHT22;9663;48.996;8.334;2024-02-16T03:55:02;14.90;56.70
19060;DHT22;9663;48.996;8.334;2024-02-16T03:57:30;14.90;56.70
19060;DHT22;9663;48.996;8.334;2024-02-16T03:59:56;14.90;56.80
19060;DHT22;9663;48.996;8.334;2024-02-16T04:02:22;14.90;57.50
19060;DHT22;9663;48.996;8.334;2024-02-16T04:04:48;14.80;56.80
19060;DHT22;9663;48.996;8.334;2024-02-16T04:07:14;14.80;56.80
19060;DHT22;9663;48.996;8.334;2024-02-16T04:09:40;14.80;57.40
19060;DHT22;9663;48.996;8.334;2024-02-16T04:12:05;14.80;56.70
19060;DHT22;9663;48.996;8.334;2024-02-16T04:14:31;14.70;56.70
19060;DHT22;9663;48.996;8.334;2024-02-16T04:16:59;14.60;56.70
19060;DHT22;9663;48.996;8.334;2024-02-16T04:19:25;14.50;56.70
19060;DHT22;9663;48.996;8.334;2024-02-16T04:21:51;14.50;56.80
19060;DHT22;9663;48.996;8.334;2024-02-16T04:24:17;14.40;56.80
19060;DHT22;9663;48.996;8.334;2024-02-16T04:26:43;14.40;56.90
19060;DHT22;9663;48.996;8.334;2024-02-16T04:29:10;14.30;57.00
19060;DHT22;9663;48.996;8.334;2024-02-16T04:31:39;14.20;57.00
19060;DHT22;9663;48.996;8.334;2024-02-16T04:34:05;14.20;57.20
19060;DHT22;9663;48.996;8.334;2024-02-16T04:36:31;14.20;57.10
19060;DHT22;9663;48.996;8.334;2024-02-16T04:38:57;14.20;57.20
19060;DHT22;9663;48.996;8.334;2024-02-16T04:41:23;14.10;57.30
19060;DHT22;9663;48.996;8.334;2024-02-16T04:43:48;14.10;57.30
19060;DHT22;9663;48.996;8.334;2024-02-16T04:46:15;14.10;57.30
19060;DHT22;9663;48.996;8.334;2024-02-16T04:48:42;14.10;57.40
19060;DHT22;9663;48.996;8.334;2024-02-16T04:51:07;14.00;57.40
19060;DHT22;9663;48.996;8.334;2024-02-16T04:53:33;14.00;57.60
19060;DHT22;9663;48.996;8.334;2024-02-16T04:55:58;14.00;57.50
19060;DHT22;9663;48.996;8.334;2024-02-16T04:58:25;14.00;57.60
19060;DHT22;9663;48.996;8.334;2024-02-16T05:00:50;14.00;57.60
19060;DHT22;9663;48.996;8.334;2024-02-16T05:03:17;14.00;57.60
19060;DHT22;9663;48.996;8.334;2024-02-16T05:05:42;14.00;57.60
19060;DHT22;9663;48.996;8.334;2024-02-16T05:08:09;14.00;58.30
19060;DHT22;9663;48.996;8.334;2024-02-16T05:10:35;14.00;57.70
19060;DHT22;9663;48.996;8.334;2024-02-16T05:13:00;14.00;57.70
19060;DHT22;9663;48.996;8.334;2024-02-16T05:15:26;13.90;57.70
19060;DHT22;9663;48.996;8.334;2024-02-16T05:17:53;14.00;57.80
19060;DHT22;9663;48.996;8.334;2024-02-16T05:20:18;13.90;57.70
19060;DHT22;9663;48.996;8.334;2024-02-16T05:22:45;14.00;57.70
19060;DHT22;9663;48.996;8.334;2024-02-16T05:25:18;13.90;57.60
19060;DHT22;9663;48.996;8.334;2024-02-16T05:27:47;13.90;57.80
19060;DHT22;9663;48.996;8.334;2024-02-16T05:30:13;13.90;57.80
19060;DHT22;9663;48.996;8.334;2024-02-16T05:32:41;13.90;57.80
19060;DHT22;9663;48.996;8.334;2024-02-16T05:35:08;13.90;57.80
19060;DHT22;9663;48.996;8.334;2024-02-16T05:37:42;13.90;57.90
19060;DHT22;9663;48.996;8.334;2024-02-16T05:40:13;13.90;57.90
19060;DHT22;9663;48.996;8.334;2024-02-16T05:42:51;13.90;57.90
19060;DHT22;9663;48.996;8.334;2024-02-16T05:45:17;13.90;57.90
19060;DHT22;9663;48.996;8.334;2024-02-16T05:47:44;13.90;57.90
19060;DHT22;9663;48.996;8.334;2024-02-16T05:50:11;13.90;57.90
19060;DHT22;9663;48.996;8.334;2024-02-16T05:52:38;13.90;57.90
19060;DHT22;9663;48.996;8.334;2024-02-16T05:55:09;13.90;57.90
19060;DHT22;9663;48.996;8.334;2024-02-16T05:57:36;13.90;58.10
19060;DHT22;9663;48.996;8.334;2024-02-16T06:00:07;13.90;58.00
19060;DHT22;9663;48.996;8.334;2024-02-16T06:02:34;13.90;58.10
19060;DHT22;9663;48.996;8.334;2024-02-16T06:05:01;13.90;58.00
19060;DHT22;9663;48.996;8.334;2024-02-16T06:07:28;13.90;58.10
19060;DHT22;9663;48.996;8.334;2024-02-16T06:09:57;13.90;58.10
19060;DHT22;9663;48.996;8.334;2024-02-16T06:12:23;13.90;58.20
19060;DHT22;9663;48.996;8.334;2024-02-16T06:14:50;13.90;58.10
19060;DHT22;9663;48.996;8.334;2024-02-16T06:17:16;13.90;58.10
19060;DHT22;9663;48.996;8.334;2024-02-16T06:19:43;13.90;58.20
19060;DHT22;9663;48.996;8.334;2024-02-16T06:22:09;13.90;58.10
19060;DHT22;9663;48.996;8.334;2024-02-16T06:24:35;13.90;58.10
19060;DHT22;9663;48.996;8.334;2024-02-16T06:27:01;13.90;58.10
19060;DHT22;9663;48.996;8.334;2024-02-16T06:29:28;13.90;58.10
19060;DHT22;9663;48.996;8.334;2024-02-16T06:31:56;13.90;58.10
19060;DHT22;9663;48.996;8.334;2024-02-16T06:34:22;13.90;58.20
19060;DHT22;9663;48.996;8.334;2024-02-16T06:36:48;13.80;58.10
19060;DHT22;9663;48.996;8.334;2024-02-16T06:39:16;13.80;58.10
19060;DHT22;9663;48.996;8.334;2024-02-16T06:41:42;13.80;58.20
19060;DHT22;9663;48.996;8.334;2024-02-16T06:44:15;13.80;58.20
19060;DHT22;9663;48.996;8.334;2024-02-16T06:46:44;13.90;58.20
19060;DHT22;9663;48.996;8.334;2024-02-16T06:49:10;13.90;58.30
19060;DHT22;9663;48.996;8.334;2024-02-16T06:51:36;13.90;58.30
19060;DHT22;9663;48.996;8.334;2024-02-16T06:54:03;13.90;58.30
19060;DHT22;9663;48.996;8.334;2024-02-16T06:56:31;13.90;58.40
19060;DHT22;9663;48.996;8.334;2024-02-16T06:58:57;13.90;58.40
19060;DHT22;9663;48.996;8.334;2024-02-16T07:01:23;14.00;58.40
19060;DHT22;9663;48.996;8.334;2024-02-16T07:03:48;14.00;58.40
19060;DHT22;9663;48.996;8.334;2024-02-16T07:06:14;14.10;58.50
19060;DHT22;9663;48.996;8.334;2024-02-16T07:08:40;14.10;58.40
19060;DHT22;9663;48.996;8.334;2024-02-16T07:11:06;14.20;58.50
19060;DHT22;9663;48.996;8.334;2024-02-16T07:13:33;14.20;58.50
19060;DHT22;9663;48.996;8.334;2024-02-16T07:15:59;14.30;58.50
19060;DHT22;9663;48.996;8.334;2024-02-16T07:18:25;14.40;58.50
19060;DHT22;9663;48.996;8.334;2024-02-16T07:20:51;14.40;58.50
19060;DHT22;9663;48.996;8.334;2024-02-16T07:23:17;14.50;58.40
19060;DHT22;9663;48.996;8.334;2024-02-16T07:25:43;14.60;58.30
19060;DHT22;9663;48.996;8.334;2024-02-16T07:28:09;14.60;58.20
19060;DHT22;9663;48.996;8.334;2024-02-16T07:30:35;14.70;58.20
19060;DHT22;9663;48.996;8.334;2024-02-16T07:33:07;14.70;58.20
19060;DHT22;9663;48.996;8.334;2024-02-16T07:35:34;14.80;58.20
19060;DHT22;9663;48.996;8.334;2024-02-16T07:38:04;14.80;58.10
19060;DHT22;9663;48.996;8.334;2024-02-16T07:40:30;14.90;58.10
19060;DHT22;9663;48.996;8.334;2024-02-16T07:42:56;14.90;58.10
19060;DHT22;9663;48.996;8.334;2024-02-16T07:45:22;15.00;58.20
19060;DHT22;9663;48.996;8.334;2024-02-16T07:47:48;15.00;58.10
19060;DHT22;9663;48.996;8.334;2024-02-16T07:50:21;15.10;58.10
19060;DHT22;9663;48.996;8.334;2024-02-16T07:52:47;15.10;58.00
19060;DHT22;9663;48.996;8.334;2024-02-16T07:55:13;15.20;57.90
19060;DHT22;9663;48.996;8.334;2024-02-16T07:57:39;15.20;57.90
19060;DHT22;9663;48.996;8.334;2024-02-16T08:00:06;15.30;57.90
19060;DHT22;9663;48.996;8.334;2024-02-16T08:02:32;15.30;57.90
19060;DHT22;9663;48.996;8.334;2024-02-16T08:04:58;15.40;58.00
19060;DHT22;9663;48.996;8.334;2024-02-16T08:07:24;15.40;57.90
19060;DHT22;9663;48.996;8.334;2024-02-16T08:09:50;15.50;58.00
19060;DHT22;9663;48.996;8.334;2024-02-16T08:12:16;15.50;57.90
19060;DHT22;9663;48.996;8.334;2024-02-16T08:14:42;15.60;57.90
19060;DHT22;9663;48.996;8.334;2024-02-16T08:17:09;15.60;57.90
19060;DHT22;9663;48.996;8.334;2024-02-16T08:19:36;15.70;57.90
19060;DHT22;9663;48.996;8.334;2024-02-16T08:22:06;15.80;57.90
19060;DHT22;9663;48.996;8.334;2024-02-16T08:24:36;15.90;57.90
19060;DHT22;9663;48.996;8.334;2024-02-16T08:27:03;15.90;57.80
19060;DHT22;9663;48.996;8.334;2024-02-16T08:29:29;15.90;57.60
19060;DHT22;9663;48.996;8.334;2024-02-16T08:31:56;16.00;57.60
19060;DHT22;9663;48.996;8.334;2024-02-16T08:34:22;16.10;57.70
19060;DHT22;9663;48.996;8.334;2024-02-16T08:36:49;16.10;57.60
19060;DHT22;9663;48.996;8.334;2024-02-16T08:39:16;16.20;57.50
19060;DHT22;9663;48.996;8.334;2024-02-16T08:41:42;16.20;57.30
19060;DHT22;9663;48.996;8.334;2024-02-16T08:44:14;16.30;57.90
19060;DHT22;9663;48.996;8.334;2024-02-16T08:46:40;16.30;57.20
19060;DHT22;9663;48.996;8.334;2024-02-16T08:49:06;16.30;57.10
19060;DHT22;9663;48.996;8.334;2024-02-16T08:51:33;16.40;57.10
19060;DHT22;9663;48.996;8.334;2024-02-16T08:54:01;16.40;57.00
19060;DHT22;9663;48.996;8.334;2024-02-16T08:56:27;16.50;56.90
19060;DHT22;9663;48.996;8.334;2024-02-16T08:58:54;16.50;56.90
19060;DHT22;9663;48.996;8.334;2024-02-16T09:01:30;16.60;56.90
19060;DHT22;9663;48.996;8.334;2024-02-16T09:03:59;16.60;56.80
19060;DHT22;9663;48.996;8.334;2024-02-16T09:06:26;16.60;56.80
19060;DHT22;9663;48.996;8.334;2024-02-16T09:08:55;16.70;56.80
19060;DHT22;9663;48.996;8.334;2024-02-16T09:11:23;16.80;56.80
19060;DHT22;9663;48.996;8.334;2024-02-16T09:13:49;16.80;56.70
19060;DHT22;9663;48.996;8.334;2024-02-16T09:16:15;16.90;56.70
19060;DHT22;9663;48.996;8.334;2024-02-16T09:18:41;16.90;56.70
19060;DHT22;9663;48.996;8.334;2024-02-16T09:21:07;17.00;56.60
19060;DHT22;9663;48.996;8.334;2024-02-16T09:23:34;17.10;56.50
19060;DHT22;9663;48.996;8.334;2024-02-16T09:26:01;17.10;56.40
19060;DHT22;9663;48.996;8.334;2024-02-16T09:28:30;17.20;56.50
19060;DHT22;9663;48.996;8.334;2024-02-16T09:30:57;17.30;56.40
19060;DHT22;9663;48.996;8.334;2024-02-16T09:33:23;17.40;56.50
19060;DHT22;9663;48.996;8.334;2024-02-16T09:35:52;17.50;56.40
19060;DHT22;9663;48.996;8.334;2024-02-16T09:38:18;17.60;56.40
19060;DHT22;9663;48.996;8.334;2024-02-16T09:40:44;17.80;56.20
19060;DHT22;9663;48.996;8.334;2024-02-16T09:43:10;17.80;56.10
19060;DHT22;9663;48.996;8.334;2024-02-16T09:45:37;17.90;56.10
19060;DHT22;9663;48.996;8.334;2024-02-16T09:48:07;18.00;56.00
19060;DHT22;9663;48.996;8.334;2024-02-16T09:50:35;18.10;55.90
19060;DHT22;9663;48.996;8.334;2024-02-16T09:53:03;18.20;55.80
19060;DHT22;9663;48.996;8.334;2024-02-16T09:55:32;18.20;55.70
19060;DHT22;9663;48.996;8.334;2024-02-16T09:58:01;18.30;55.60
19060;DHT22;9663;48.996;8.334;2024-02-16T10:00:27;18.30;55.70
19060;DHT22;9663;48.996;8.334;2024-02-16T10:02:53;18.40;55.60
19060;DHT22;9663;48.996;8.334;2024-02-16T10:05:20;18.50;55.60
19060;DHT22;9663;48.996;8.334;2024-02-16T10:07:46;18.60;55.60
19060;DHT22;9663;48.996;8.334;2024-02-16T10:10:26;18.80;55.60
19060;DHT22;9663;48.996;8.334;2024-02-16T10:13:02;19.00;55.10
19060;DHT22;9663;48.996;8.334;2024-02-16T10:15:30;19.20;55.20
19060;DHT22;9663;48.996;8.334;2024-02-16T10:18:03;19.40;55.20
19060;DHT22;9663;48.996;8.334;2024-02-16T10:20:34;19.50;54.50
19060;DHT22;9663;48.996;8.334;2024-02-16T10:25:36;19.70;54.10
19060;DHT22;9663;48.996;8.334;2024-02-16T10:28:10;19.70;54.10
19060;DHT22;9663;48.996;8.334;2024-02-16T10:30:43;19.70;54.00
19060;DHT22;9663;48.996;8.334;2024-02-16T10:33:11;19.80;54.00
19060;DHT22;9663;48.996;8.334;2024-02-16T10:35:39;19.80;53.80
19060;DHT22;9663;48.996;8.334;2024-02-16T10:38:07;19.80;53.80
19060;DHT22;9663;48.996;8.334;2024-02-16T10:40:41;19.80;53.70
19060;DHT22;9663;48.996;8.334;2024-02-16T10:43:08;19.90;53.50
19060;DHT22;9663;48.996;8.334;2024-02-16T10:45:36;19.90;53.70
19060;DHT22;9663;48.996;8.334;2024-02-16T10:48:04;20.00;53.70
19060;DHT22;9663;48.996;8.334;2024-02-16T10:50:34;20.10;53.80
19060;DHT22;9663;48.996;8.334;2024-02-16T10:55:46;20.50;53.50
19060;DHT22;9663;48.996;8.334;2024-02-16T10:58:12;20.80;53.80
19060;DHT22;9663;48.996;8.334;2024-02-16T11:00:54;21.00;53.50
19060;DHT22;9663;48.996;8.334;2024-02-16T11:03:23;21.30;52.80
19060;DHT22;9663;48.996;8.334;2024-02-16T11:05:50;21.50;53.00
19060;DHT22;9663;48.996;8.334;2024-02-16T11:08:18;21.60;52.50
19060;DHT22;9663;48.996;8.334;2024-02-16T11:10:58;21.80;52.10
19060;DHT22;9663;48.996;8.334;2024-02-16T11:13:27;21.80;51.20
19060;DHT22;9663;48.996;8.334;2024-02-16T11:18:27;22.00;51.80
19060;DHT22;9663;48.996;8.334;2024-02-16T11:20:53;22.10;51.60
19060;DHT22;9663;48.996;8.334;2024-02-16T11:23:28;22.20;51.70
19060;DHT22;9663;48.996;8.334;2024-02-16T11:26:03;22.20;51.20
19060;DHT22;9663;48.996;8.334;2024-02-16T11:28:34;22.30;50.90
19060;DHT22;9663;48.996;8.334;2024-02-16T11:31:01;22.40;50.70
19060;DHT22;9663;48.996;8.334;2024-02-16T11:33:28;22.50;51.00
19060;DHT22;9663;48.996;8.334;2024-02-16T11:35:56;22.70;50.70
19060;DHT22;9663;48.996;8.334;2024-02-16T11:38:23;22.90;50.70
19060;DHT22;9663;48.996;8.334;2024-02-16T11:41:03;22.90;49.70
19060;DHT22;9663;48.996;8.334;2024-02-16T11:43:30;23.10;49.50
19060;DHT22;9663;48.996;8.334;2024-02-16T11:45:58;23.30;49.70
19060;DHT22;9663;48.996;8.334;2024-02-16T11:48:27;23.40;49.20
19060;DHT22;9663;48.996;8.334;2024-02-16T11:51:01;23.70;48.10
19060;DHT22;9663;48.996;8.334;2024-02-16T11:53:29;23.90;47.80
19060;DHT22;9663;48.996;8.334;2024-02-16T11:55:56;24.30;48.70
19060;DHT22;9663;48.996;8.334;2024-02-16T11:58:23;24.60;48.50
19060;DHT22;9663;48.996;8.334;2024-02-16T12:00:50;24.80;47.10
19060;DHT22;9663;48.996;8.334;2024-02-16T12:03:24;24.90;46.70
19060;DHT22;9663;48.996;8.334;2024-02-16T12:05:54;24.80;46.10
19060;DHT22;9663;48.996;8.334;2024-02-16T12:08:21;24.70;46.50
19060;DHT22;9663;48.996;8.334;2024-02-16T12:10:49;24.50;46.30
19060;DHT22;9663;48.996;8.334;2024-02-16T12:13:19;24.40;46.30
19060;DHT22;9663;48.996;8.334;2024-02-16T12:15:46;24.20;46.10
19060;DHT22;9663;48.996;8.334;2024-02-16T12:18:21;24.00;46.40
19060;DHT22;9663;48.996;8.334;2024-02-16T12:21:03;23.70;45.60
19060;DHT22;9663;48.996;8.334;2024-02-16T12:23:31;23.50;46.40
19060;DHT22;9663;48.996;8.334;2024-02-16T12:25:58;23.50;46.80
19060;DHT22;9663;48.996;8.334;2024-02-16T12:28:26;23.50;47.20
19060;DHT22;9663;48.996;8.334;2024-02-16T12:30:56;23.50;47.40
19060;DHT22;9663;48.996;8.334;2024-02-16T12:33:23;23.70;47.20
19060;DHT22;9663;48.996;8.334;2024-02-16T12:35:49;23.60;46.80
19060;DHT22;9663;48.996;8.334;2024-02-16T12:38:15;23.60;46.70
19060;DHT22;9663;48.996;8.334;2024-02-16T12:40:47;23.50;47.00
19060;DHT22;9663;48.996;8.334;2024-02-16T12:43:14;23.40;46.70
19060;DHT22;9663;48.996;8.334;2024-02-16T12:45:40;23.30;47.20
19060;DHT22;9663;48.996;8.334;2024-02-16T12:48:07;23.20;47.30
19060;DHT22;9663;48.996;8.334;2024-02-16T12:50:35;23.10;47.30
19060;DHT22;9663;48.996;8.334;2024-02-16T12:53:03;23.00;47.40
19060;DHT22;9663;48.996;8.334;2024-02-16T12:55:28;22.90;47.30
19060;DHT22;9663;48.996;8.334;2024-02-16T12:57:55;22.80;47.30
19060;DHT22;9663;48.996;8.334;2024-02-16T13:00:23;22.80;47.60
19060;DHT22;9663;48.996;8.334;2024-02-16T13:02:48;22.80;47.60
19060;DHT22;9663;48.996;8.334;2024-02-16T13:05:14;22.70;47.40
19060;DHT22;9663;48.996;8.334;2024-02-16T13:07:40;22.70;47.20
19060;DHT22;9663;48.996;8.334;2024-02-16T13:10:08;22.60;47.20
19060;DHT22;9663;48.996;8.334;2024-02-16T13:12:34;22.50;47.40
19060;DHT22;9663;48.996;8.334;2024-02-16T13:15:00;22.40;47.50
19060;DHT22;9663;48.996;8.334;2024-02-16T13:17:27;22.30;47.70
19060;DHT22;9663;48.996;8.334;2024-02-16T13:19:53;22.20;47.80
19060;DHT22;9663;48.996;8.334;2024-02-16T13:22:18;22.20;47.90
19060;DHT22;9663;48.996;8.334;2024-02-16T13:24:44;22.20;48.00
19060;DHT22;9663;48.996;8.334;2024-02-16T13:27:10;22.20;48.10
19060;DHT22;9663;48.996;8.334;2024-02-16T13:29:37;22.20;48.30
19060;DHT22;9663;48.996;8.334;2024-02-16T13:32:03;22.20;48.30
19060;DHT22;9663;48.996;8.334;2024-02-16T13:34:29;22.30;48.40
19060;DHT22;9663;48.996;8.334;2024-02-16T13:36:55;22.40;48.50
19060;DHT22;9663;48.996;8.334;2024-02-16T13:39:21;22.50;48.50
19060;DHT22;9663;48.996;8.334;2024-02-16T13:41:48;22.60;48.40
19060;DHT22;9663;48.996;8.334;2024-02-16T13:44:17;22.70;48.30
19060;DHT22;9663;48.996;8.334;2024-02-16T13:46:45;22.80;48.10
19060;DHT22;9663;48.996;8.334;2024-02-16T13:49:12;22.80;47.90
19060;DHT22;9663;48.996;8.334;2024-02-16T13:51:39;22.80;47.90
19060;DHT22;9663;48.996;8.334;2024-02-16T13:54:06;22.80;47.90
19060;DHT22;9663;48.996;8.334;2024-02-16T13:56:31;22.70;47.80
19060;DHT22;9663;48.996;8.334;2024-02-16T13:58:57;22.70;47.80
19060;DHT22;9663;48.996;8.334;2024-02-16T14:01:23;22.60;47.40
19060;DHT22;9663;48.996;8.334;2024-02-16T14:03:50;22.50;47.20
19060;DHT22;9663;48.996;8.334;2024-02-16T14:06:16;22.40;47.30
19060;DHT22;9663;48.996;8.334;2024-02-16T14:08:42;22.30;47.50
19060;DHT22;9663;48.996;8.334;2024-02-16T14:11:08;22.10;47.50
19060;DHT22;9663;48.996;8.334;2024-02-16T14:13:34;22.00;47.70
19060;DHT22;9663;48.996;8.334;2024-02-16T14:16:00;21.90;47.80
19060;DHT22;9663;48.996;8.334;2024-02-16T14:18:26;21.90;47.90
19060;DHT22;9663;48.996;8.334;2024-02-16T14:20:52;21.80;47.70
19060;DHT22;9663;48.996;8.334;2024-02-16T14:23:17;21.70;48.00
19060;DHT22;9663;48.996;8.334;2024-02-16T14:25:43;21.60;48.00
19060;DHT22;9663;48.996;8.334;2024-02-16T14:28:10;21.50;48.00
19060;DHT22;9663;48.996;8.334;2024-02-16T14:30:36;21.30;48.10
19060;DHT22;9663;48.996;8.334;2024-02-16T14:33:02;21.20;48.20
19060;DHT22;9663;48.996;8.334;2024-02-16T14:35:30;21.10;48.40
19060;DHT22;9663;48.996;8.334;2024-02-16T14:37:57;21.00;48.50
19060;DHT22;9663;48.996;8.334;2024-02-16T14:40:24;20.90;48.60
19060;DHT22;9663;48.996;8.334;2024-02-16T14:42:50;20.80;48.70
19060;DHT22;9663;48.996;8.334;2024-02-16T14:45:16;20.70;48.80
19060;DHT22;9663;48.996;8.334;2024-02-16T14:47:46;20.60;48.90
19060;DHT22;9663;48.996;8.334;2024-02-16T14:50:13;20.60;49.80
19060;DHT22;9663;48.996;8.334;2024-02-16T14:52:41;20.60;49.60
19060;DHT22;9663;48.996;8.334;2024-02-16T14:55:07;20.60;49.30
19060;DHT22;9663;48.996;8.334;2024-02-16T14:57:39;20.50;49.20
19060;DHT22;9663;48.996;8.334;2024-02-16T15:00:10;20.50;49.30
19060;DHT22;9663;48.996;8.334;2024-02-16T15:02:37;20.40;49.20
19060;DHT22;9663;48.996;8.334;2024-02-16T15:05:07;20.30;49.30
19060;DHT22;9663;48.996;8.334;2024-02-16T15:07:33;20.20;50.30
19060;DHT22;9663;48.996;8.334;2024-02-16T15:09:58;20.20;50.00
19060;DHT22;9663;48.996;8.334;2024-02-16T15:12:24;20.20;50.00
19060;DHT22;9663;48.996;8.334;2024-02-16T15:14:50;20.10;49.80
19060;DHT22;9663;48.996;8.334;2024-02-16T15:17:16;19.90;49.90
19060;DHT22;9663;48.996;8.334;2024-02-16T15:19:42;19.90;50.00
19060;DHT22;9663;48.996;8.334;2024-02-16T15:22:08;19.80;50.00
19060;DHT22;9663;48.996;8.334;2024-02-16T15:24:34;19.70;50.10
19060;DHT22;9663;48.996;8.334;2024-02-16T15:27:00;19.60;50.20
19060;DHT22;9663;48.996;8.334;2024-02-16T15:29:29;19.50;50.30
19060;DHT22;9663;48.996;8.334;2024-02-16T15:31:57;19.40;50.50
19060;DHT22;9663;48.996;8.334;2024-02-16T15:34:25;19.30;50.60
19060;DHT22;9663;48.996;8.334;2024-02-16T15:36:51;19.20;50.60
19060;DHT22;9663;48.996;8.334;2024-02-16T15:39:16;19.20;51.40
19060;DHT22;9663;48.996;8.334;2024-02-16T15:41:42;19.10;50.90
19060;DHT22;9663;48.996;8.334;2024-02-16T15:44:08;19.20;51.00
19060;DHT22;9663;48.996;8.334;2024-02-16T15:46:35;19.10;51.00
19060;DHT22;9663;48.996;8.334;2024-02-16T15:49:01;19.00;51.00
19060;DHT22;9663;48.996;8.334;2024-02-16T15:51:27;19.00;51.30